sensor_id;sensor_type;location;lat;lon;timestamp;pressure;altitude;pressure_sealevel;temperature;humidity
39363;BME280;25088;43.238;23.110;2023-01-26T00:01:20;97238.63;;;0.20;100.00
39363;BME280;25088;43.238;23.110;2023-01-26T00:03:46;97234.25;;;0.19;100.00
39363;BME280;25088;43.238;23.110;2023-01-26T00:06:15;97234.94;;;0.13;100.00
39363;BME280;25088;43.238;23.110;2023-01-26T00:08:43;97230.41;;;0.14;100.00
39363;BME280;25088;43.238;23.110;2023-01-26T00:11:10;97230.56;;;0.20;100.00
39363;BME280;25088;43.238;23.110;2023-01-26T00:13:36;97188.50;;;0.05;100.00
39363;BME280;25088;43.238;23.110;2023-01-26T00:16:02;97218.13;;;0.19;100.00
39363;BME280;25088;43.238;23.110;2023-01-26T00:18:29;97232.06;;;0.23;100.00
39363;BME280;25088;43.238;23.110;2023-01-26T00:20:56;97231.09;;;0.08;100.00
39363;BME280;25088;43.238;23.110;2023-01-26T00:23:23;97226.25;;;0.11;100.00
39363;BME280;25088;43.238;23.110;2023-01-26T00:25:48;97232.63;;;0.10;100.00
39363;BME280;25088;43.238;23.110;2023-01-26T00:28:14;97230.41;;;0.14;100.00
39363;BME280;25088;43.238;23.110;2023-01-26T00:30:39;97218.53;;;0.08;100.00
39363;BME280;25088;43.238;23.110;2023-01-26T00:33:05;97204.59;;;0.05;100.00
39363;BME280;25088;43.238;23.110;2023-01-26T00:35:30;97212.66;;;0.05;100.00
39363;BME280;25088;43.238;23.110;2023-01-26T00:37:56;97218.19;;;0.03;100.00
39363;BME280;25088;43.238;23.110;2023-01-26T00:40:21;97199.94;;;-0.02;100.00
39363;BME280;25088;43.238;23.110;2023-01-26T00:42:47;97204.47;;;-0.02;100.00
39363;BME280;25088;43.238;23.110;2023-01-26T00:45:12;97201.97;;;-0.04;100.00
39363;BME280;25088;43.238;23.110;2023-01-26T00:47:38;97205.63;;;0.04;100.00
39363;BME280;25088;43.238;23.110;2023-01-26T00:50:04;97191.91;;;-0.10;100.00
39363;BME280;25088;43.238;23.110;2023-01-26T00:52:30;97195.56;;;-0.03;100.00
39363;BME280;25088;43.238;23.110;2023-01-26T00:54:56;97190.59;;;-0.14;100.00
39363;BME280;25088;43.238;23.110;2023-01-26T00:57:21;97195.13;;;-0.14;100.00
39363;BME280;25088;43.238;23.110;2023-01-26T00:59:47;97187.72;;;-0.04;100.00
39363;BME280;25088;43.238;23.110;2023-01-26T01:02:12;97187.22;;;-0.16;100.00
39363;BME280;25088;43.238;23.110;2023-01-26T01:04:38;97202.22;;;-0.30;100.00
39363;BME280;25088;43.238;23.110;2023-01-26T01:07:03;97193.47;;;-0.23;100.00
39363;BME280;25088;43.238;23.110;2023-01-26T01:09:29;97194.44;;;-0.16;100.00
39363;BME280;25088;43.238;23.110;2023-01-26T01:11:54;97187.91;;;-0.14;100.00
39363;BME280;25088;43.238;23.110;2023-01-26T01:14:19;97178.22;;;-0.31;100.00
39363;BME280;25088;43.238;23.110;2023-01-26T01:16:45;97172.13;;;-0.17;100.00
39363;BME280;25088;43.238;23.110;2023-01-26T01:19:15;97183.38;;;-0.13;100.00
39363;BME280;25088;43.238;23.110;2023-01-26T01:21:41;97181.34;;;-0.11;100.00
39363;BME280;25088;43.238;23.110;2023-01-26T01:24:07;97172.81;;;-0.15;100.00
39363;BME280;25088;43.238;23.110;2023-01-26T01:26:33;97173.47;;;-0.13;100.00
39363;BME280;25088;43.238;23.110;2023-01-26T01:28:58;97175.13;;;-0.12;100.00
39363;BME280;25088;43.238;23.110;2023-01-26T01:31:24;97170.44;;;-0.10;100.00
39363;BME280;25088;43.238;23.110;2023-01-26T01:33:51;97161.41;;;-0.17;100.00
39363;BME280;25088;43.238;23.110;2023-01-26T01:36:17;97165.41;;;-0.13;100.00
39363;BME280;25088;43.238;23.110;2023-01-26T01:38:43;97159.91;;;-0.19;100.00
39363;BME280;25088;43.238;23.110;2023-01-26T01:41:09;97152.19;;;-0.22;100.00
39363;BME280;25088;43.238;23.110;2023-01-26T01:43:35;97165.44;;;-0.21;100.00
39363;BME280;25088;43.238;23.110;2023-01-26T01:46:26;97159.75;;;-0.26;100.00
39363;BME280;25088;43.238;23.110;2023-01-26T01:49:01;97154.06;;;-0.23;100.00
39363;BME280;25088;43.238;23.110;2023-01-26T01:51:45;97145.66;;;-0.20;100.00
39363;BME280;25088;43.238;23.110;2023-01-26T01:54:16;97150.38;;;-0.30;100.00
39363;BME280;25088;43.238;23.110;2023-01-26T01:56:47;97143.31;;;-0.23;100.00
39363;BME280;25088;43.238;23.110;2023-01-26T01:59:14;97140.94;;;-0.18;100.00
39363;BME280;25088;43.238;23.110;2023-01-26T02:01:40;97131.25;;;-0.27;100.00
39363;BME280;25088;43.238;23.110;2023-01-26T02:04:06;97137.94;;;-0.15;100.00
39363;BME280;25088;43.238;23.110;2023-01-26T02:06:36;97138.25;;;-0.18;100.00
39363;BME280;25088;43.238;23.110;2023-01-26T02:09:04;97135.59;;;-0.18;100.00
39363;BME280;25088;43.238;23.110;2023-01-26T02:11:40;97133.72;;;-0.17;100.00
39363;BME280;25088;43.238;23.110;2023-01-26T02:14:10;97141.59;;;-0.16;100.00
39363;BME280;25088;43.238;23.110;2023-01-26T02:16:38;97135.59;;;-0.18;100.00
39363;BME280;25088;43.238;23.110;2023-01-26T02:19:12;97118.16;;;-0.22;100.00
39363;BME280;25088;43.238;23.110;2023-01-26T02:21:42;97116.94;;;-0.11;100.00
39363;BME280;25088;43.238;23.110;2023-01-26T02:24:26;97113.41;;;-0.12;100.00
39363;BME280;25088;43.238;23.110;2023-01-26T02:26:53;97111.63;;;-0.19;100.00
39363;BME280;25088;43.238;23.110;2023-01-26T02:29:20;97101.03;;;-0.21;100.00
39363;BME280;25088;43.238;23.110;2023-01-26T02:31:47;97101.56;;;-0.26;100.00
39363;BME280;25088;43.238;23.110;2023-01-26T02:34:12;97101.91;;;-0.29;100.00
39363;BME280;25088;43.238;23.110;2023-01-26T02:36:38;97087.19;;;-0.33;100.00
39363;BME280;25088;43.238;23.110;2023-01-26T02:41:38;97101.56;;;-0.26;100.00
39363;BME280;25088;43.238;23.110;2023-01-26T02:44:23;97066.56;;;-0.40;100.00
39363;BME280;25088;43.238;23.110;2023-01-26T02:46:49;97107.41;;;-0.22;100.00
39363;BME280;25088;43.238;23.110;2023-01-26T02:49:15;97084.50;;;-0.33;100.00
39363;BME280;25088;43.238;23.110;2023-01-26T02:51:59;97083.75;;;-0.18;100.00
39363;BME280;25088;43.238;23.110;2023-01-26T02:54:25;97084.72;;;-0.11;100.00
39363;BME280;25088;43.238;23.110;2023-01-26T02:57:09;97094.28;;;-0.09;100.00
39363;BME280;25088;43.238;23.110;2023-01-26T02:59:34;97074.19;;;-0.13;100.00
39363;BME280;25088;43.238;23.110;2023-01-26T03:02:00;97071.63;;;-0.06;100.00
39363;BME280;25088;43.238;23.110;2023-01-26T03:04:25;97075.09;;;0.03;100.00
39363;BME280;25088;43.238;23.110;2023-01-26T03:06:51;97071.94;;;-0.01;100.00
39363;BME280;25088;43.238;23.110;2023-01-26T03:09:17;97065.91;;;-0.03;100.00
39363;BME280;25088;43.238;23.110;2023-01-26T03:11:42;97065.91;;;-0.03;100.00
39363;BME280;25088;43.238;23.110;2023-01-26T03:14:12;97064.59;;;-0.07;100.00
39363;BME280;25088;43.238;23.110;2023-01-26T03:16:38;97043.22;;;-0.23;100.00
39363;BME280;25088;43.238;23.110;2023-01-26T03:19:04;97047.00;;;-0.10;100.00
39363;BME280;25088;43.238;23.110;2023-01-26T03:21:48;97032.78;;;-0.18;100.00
39363;BME280;25088;43.238;23.110;2023-01-26T03:24:33;97042.47;;;-0.09;100.00
39363;BME280;25088;43.238;23.110;2023-01-26T03:27:16;97012.16;;;-0.18;100.00
39363;BME280;25088;43.238;23.110;2023-01-26T03:29:51;97039.50;;;0.09;100.00
39363;BME280;25088;43.238;23.110;2023-01-26T03:32:17;97033.09;;;0.10;100.00
39363;BME280;25088;43.238;23.110;2023-01-26T03:34:43;97036.81;;;0.09;100.00
39363;BME280;25088;43.238;23.110;2023-01-26T03:37:09;97030.69;;;0.00;100.00
39363;BME280;25088;43.238;23.110;2023-01-26T03:39:34;97045.56;;;0.03;100.00
39363;BME280;25088;43.238;23.110;2023-01-26T03:42:18;97032.47;;;0.08;100.00
39363;BME280;25088;43.238;23.110;2023-01-26T03:45:03;97025.53;;;0.13;100.00
39363;BME280;25088;43.238;23.110;2023-01-26T03:47:47;97024.22;;;0.09;100.00
39363;BME280;25088;43.238;23.110;2023-01-26T03:50:31;97027.56;;;0.11;100.00
39363;BME280;25088;43.238;23.110;2023-01-26T03:53:17;97021.72;;;0.08;100.00
39363;BME280;25088;43.238;23.110;2023-01-26T03:56:04;96995.28;;;-0.04;100.00
39363;BME280;25088;43.238;23.110;2023-01-26T03:58:50;97027.72;;;0.10;100.00
39363;BME280;25088;43.238;23.110;2023-01-26T04:01:17;97012.19;;;0.05;100.00
39363;BME280;25088;43.238;23.110;2023-01-26T04:03:49;97011.31;;;0.05;100.00
39363;BME280;25088;43.238;23.110;2023-01-26T04:06:34;97015.84;;;0.04;100.00
39363;BME280;25088;43.238;23.110;2023-01-26T04:09:19;96993.09;;;0.00;100.00
39363;BME280;25088;43.238;23.110;2023-01-26T04:11:45;97004.78;;;0.07;100.00
39363;BME280;25088;43.238;23.110;2023-01-26T04:14:12;97013.13;;;0.12;100.00
39363;BME280;25088;43.238;23.110;2023-01-26T04:16:57;97004.34;;;0.18;100.00
39363;BME280;25088;43.238;23.110;2023-01-26T04:19:41;97002.16;;;0.22;100.00
39363;BME280;25088;43.238;23.110;2023-01-26T04:22:25;96992.25;;;0.22;100.00
39363;BME280;25088;43.238;23.110;2023-01-26T04:24:50;96987.22;;;0.19;100.00
39363;BME280;25088;43.238;23.110;2023-01-26T04:27:16;96972.31;;;0.17;100.00
39363;BME280;25088;43.238;23.110;2023-01-26T04:29:41;96981.69;;;0.21;100.00
39363;BME280;25088;43.238;23.110;2023-01-26T04:32:07;96982.88;;;0.18;100.00
39363;BME280;25088;43.238;23.110;2023-01-26T04:34:32;96977.03;;;0.15;100.00
39363;BME280;25088;43.238;23.110;2023-01-26T04:36:58;96992.31;;;0.14;100.00
39363;BME280;25088;43.238;23.110;2023-01-26T04:39:23;96990.09;;;0.18;100.00
39363;BME280;25088;43.238;23.110;2023-01-26T04:41:48;96977.22;;;0.13;100.00
39363;BME280;25088;43.238;23.110;2023-01-26T04:44:14;96979.97;;;0.05;100.00
39363;BME280;25088;43.238;23.110;2023-01-26T04:46:41;96986.19;;;0.06;100.00
39363;BME280;25088;43.238;23.110;2023-01-26T04:49:06;96984.13;;;0.08;100.00
39363;BME280;25088;43.238;23.110;2023-01-26T04:51:32;96985.81;;;0.09;100.00
39363;BME280;25088;43.238;23.110;2023-01-26T04:53:57;96988.66;;;0.07;100.00
39363;BME280;25088;43.238;23.110;2023-01-26T04:56:24;96981.50;;;-0.01;100.00
39363;BME280;25088;43.238;23.110;2023-01-26T04:58:51;96983.94;;;0.09;100.00
39363;BME280;25088;43.238;23.110;2023-01-26T05:01:17;96978.75;;;0.08;100.00
39363;BME280;25088;43.238;23.110;2023-01-26T05:03:43;96959.91;;;-0.07;100.00
39363;BME280;25088;43.238;23.110;2023-01-26T05:06:08;96979.78;;;0.07;100.00
39363;BME280;25088;43.238;23.110;2023-01-26T05:08:35;96975.78;;;0.03;100.00
39363;BME280;25088;43.238;23.110;2023-01-26T05:11:01;96978.75;;;0.08;100.00
39363;BME280;25088;43.238;23.110;2023-01-26T05:13:27;96950.00;;;-0.07;100.00
39363;BME280;25088;43.238;23.110;2023-01-26T05:15:52;96955.53;;;0.00;100.00
39363;BME280;25088;43.238;23.110;2023-01-26T05:18:17;96946.16;;;-0.04;100.00
39363;BME280;25088;43.238;23.110;2023-01-26T05:20:43;96962.31;;;0.11;100.00
39363;BME280;25088;43.238;23.110;2023-01-26T05:23:08;96966.66;;;0.12;100.00
39363;BME280;25088;43.238;23.110;2023-01-26T05:25:34;96962.66;;;0.08;100.00
39363;BME280;25088;43.238;23.110;2023-01-26T05:28:00;96934.16;;;-0.16;100.00
39363;BME280;25088;43.238;23.110;2023-01-26T05:30:25;96961.81;;;0.07;100.00
39363;BME280;25088;43.238;23.110;2023-01-26T05:32:51;96953.78;;;0.07;100.00
39363;BME280;25088;43.238;23.110;2023-01-26T05:35:17;96945.53;;;0.09;100.00
39363;BME280;25088;43.238;23.110;2023-01-26T05:37:42;96946.00;;;0.12;100.00
39363;BME280;25088;43.238;23.110;2023-01-26T05:40:10;96951.19;;;0.14;100.00
39363;BME280;25088;43.238;23.110;2023-01-26T05:42:37;96945.00;;;0.13;100.00
39363;BME280;25088;43.238;23.110;2023-01-26T05:45:03;96959.44;;;0.12;100.00
39363;BME280;25088;43.238;23.110;2023-01-26T05:47:29;96958.50;;;0.05;100.00
39363;BME280;25088;43.238;23.110;2023-01-26T05:49:54;96963.97;;;0.12;100.00
39363;BME280;25088;43.238;23.110;2023-01-26T05:52:21;96965.66;;;0.13;100.00
39363;BME280;25088;43.238;23.110;2023-01-26T05:54:46;96966.19;;;0.08;100.00
39363;BME280;25088;43.238;23.110;2023-01-26T05:57:12;96959.63;;;0.11;100.00
39363;BME280;25088;43.238;23.110;2023-01-26T05:59:38;96947.50;;;0.15;100.00
39363;BME280;25088;43.238;23.110;2023-01-26T06:02:04;96953.72;;;0.15;100.00
39363;BME280;25088;43.238;23.110;2023-01-26T06:04:30;96954.91;;;0.13;100.00
39363;BME280;25088;43.238;23.110;2023-01-26T06:06:57;96951.19;;;0.14;100.00
39363;BME280;25088;43.238;23.110;2023-01-26T06:09:23;96954.19;;;0.19;100.00
39363;BME280;25088;43.238;23.110;2023-01-26T06:11:48;96951.63;;;0.25;100.00
39363;BME280;25088;43.238;23.110;2023-01-26T06:14:14;96951.97;;;0.22;100.00
39363;BME280;25088;43.238;23.110;2023-01-26T06:16:40;96952.81;;;0.23;100.00
39363;BME280;25088;43.238;23.110;2023-01-26T06:19:05;96948.25;;;0.23;100.00
39363;BME280;25088;43.238;23.110;2023-01-26T06:21:31;96949.19;;;0.16;100.00
39363;BME280;25088;43.238;23.110;2023-01-26T06:23:57;96949.19;;;0.16;100.00
39363;BME280;25088;43.238;23.110;2023-01-26T06:26:23;96941.28;;;0.14;100.00
39363;BME280;25088;43.238;23.110;2023-01-26T06:28:50;96942.59;;;0.18;100.00
39363;BME280;25088;43.238;23.110;2023-01-26T06:31:16;96940.47;;;0.14;100.00
39363;BME280;25088;43.238;23.110;2023-01-26T06:33:42;96943.63;;;0.17;100.00
39363;BME280;25088;43.238;23.110;2023-01-26T06:36:10;96939.19;;;0.24;100.00
39363;BME280;25088;43.238;23.110;2023-01-26T06:38:36;96937.28;;;0.33;100.00
39363;BME280;25088;43.238;23.110;2023-01-26T06:41:04;96933.38;;;0.21;100.00
39363;BME280;25088;43.238;23.110;2023-01-26T06:43:31;96929.00;;;0.20;100.00
39363;BME280;25088;43.238;23.110;2023-01-26T06:45:57;96931.22;;;0.16;100.00
39363;BME280;25088;43.238;23.110;2023-01-26T06:48:27;96927.72;;;0.16;100.00
39363;BME280;25088;43.238;23.110;2023-01-26T06:50:56;96930.69;;;0.21;100.00
39363;BME280;25088;43.238;23.110;2023-01-26T06:53:33;96914.53;;;0.06;100.00
39363;BME280;25088;43.238;23.110;2023-01-26T06:55:58;96923.94;;;0.40;100.00
39363;BME280;25088;43.238;23.110;2023-01-26T06:58:24;96919.09;;;0.73;100.00
39363;BME280;25088;43.238;23.110;2023-01-26T07:00:49;96906.31;;;0.75;100.00
39363;BME280;25088;43.238;23.110;2023-01-26T07:03:15;96917.50;;;0.93;100.00
39363;BME280;25088;43.238;23.110;2023-01-26T07:05:40;96920.03;;;1.10;100.00
39363;BME280;25088;43.238;23.110;2023-01-26T07:08:06;96927.25;;;1.09;100.00
39363;BME280;25088;43.238;23.110;2023-01-26T07:10:36;96917.97;;;1.12;100.00
39363;BME280;25088;43.238;23.110;2023-01-26T07:13:03;96914.53;;;1.18;100.00
39363;BME280;25088;43.238;23.110;2023-01-26T07:15:29;96913.44;;;1.12;96.60
39363;BME280;25088;43.238;23.110;2023-01-26T07:17:58;96893.72;;;1.05;98.68
39363;BME280;25088;43.238;23.110;2023-01-26T07:20:24;96909.44;;;1.23;98.39
39363;BME280;25088;43.238;23.110;2023-01-26T07:22:50;96892.66;;;1.21;98.68
39363;BME280;25088;43.238;23.110;2023-01-26T07:25:16;96907.75;;;1.37;98.31
39363;BME280;25088;43.238;23.110;2023-01-26T07:27:42;96902.16;;;1.38;96.79
39363;BME280;25088;43.238;23.110;2023-01-26T07:30:08;96895.13;;;1.37;93.98
39363;BME280;25088;43.238;23.110;2023-01-26T07:32:34;96900.44;;;1.31;93.73
39363;BME280;25088;43.238;23.110;2023-01-26T07:35:00;96907.78;;;1.22;95.28
39363;BME280;25088;43.238;23.110;2023-01-26T07:37:29;96894.34;;;1.07;95.94
39363;BME280;25088;43.238;23.110;2023-01-26T07:39:55;96894.81;;;1.11;96.88
39363;BME280;25088;43.238;23.110;2023-01-26T07:42:20;96900.06;;;1.19;95.68
39363;BME280;25088;43.238;23.110;2023-01-26T07:44:46;96902.19;;;1.23;95.62
39363;BME280;25088;43.238;23.110;2023-01-26T07:47:12;96884.03;;;1.25;96.11
39363;BME280;25088;43.238;23.110;2023-01-26T07:49:39;96894.28;;;1.37;93.27
39363;BME280;25088;43.238;23.110;2023-01-26T07:52:04;96877.63;;;1.26;94.25
39363;BME280;25088;43.238;23.110;2023-01-26T07:54:30;96891.81;;;1.35;93.71
39363;BME280;25088;43.238;23.110;2023-01-26T07:56:56;96889.63;;;1.45;93.88
39363;BME280;25088;43.238;23.110;2023-01-26T07:59:21;96886.66;;;1.55;93.58
39363;BME280;25088;43.238;23.110;2023-01-26T08:01:50;96883.44;;;1.66;93.64
39363;BME280;25088;43.238;23.110;2023-01-26T08:04:17;96882.09;;;1.77;90.93
39363;BME280;25088;43.238;23.110;2023-01-26T08:06:42;96884.78;;;1.77;89.64
39363;BME280;25088;43.238;23.110;2023-01-26T08:09:08;96883.97;;;1.76;91.00
39363;BME280;25088;43.238;23.110;2023-01-26T08:11:34;96853.00;;;1.66;91.30
39363;BME280;25088;43.238;23.110;2023-01-26T08:14:00;96880.19;;;1.71;90.52
39363;BME280;25088;43.238;23.110;2023-01-26T08:16:25;96869.53;;;1.63;90.12
39363;BME280;25088;43.238;23.110;2023-01-26T08:18:51;96867.63;;;1.57;91.73
39363;BME280;25088;43.238;23.110;2023-01-26T08:21:17;96863.97;;;1.64;91.79
39363;BME280;25088;43.238;23.110;2023-01-26T08:23:46;96867.41;;;1.58;91.76
39363;BME280;25088;43.238;23.110;2023-01-26T08:26:12;96871.97;;;1.58;91.79
39363;BME280;25088;43.238;23.110;2023-01-26T08:28:38;96871.50;;;1.54;91.39
39363;BME280;25088;43.238;23.110;2023-01-26T08:31:06;96865.91;;;1.70;97.05
39363;BME280;25088;43.238;23.110;2023-01-26T08:33:32;96871.22;;;1.85;90.49
39363;BME280;25088;43.238;23.110;2023-01-26T08:36:04;96854.50;;;1.90;89.51
39363;BME280;25088;43.238;23.110;2023-01-26T08:38:31;96825.28;;;1.65;89.78
39363;BME280;25088;43.238;23.110;2023-01-26T08:40:57;96848.16;;;1.76;90.49
39363;BME280;25088;43.238;23.110;2023-01-26T08:43:23;96853.31;;;1.77;90.01
39363;BME280;25088;43.238;23.110;2023-01-26T08:45:48;96852.88;;;1.95;89.43
39363;BME280;25088;43.238;23.110;2023-01-26T08:48:14;96850.28;;;2.08;92.59
39363;BME280;25088;43.238;23.110;2023-01-26T08:50:39;96853.38;;;2.05;89.20
39363;BME280;25088;43.238;23.110;2023-01-26T08:53:05;96841.28;;;1.95;88.19
39363;BME280;25088;43.238;23.110;2023-01-26T08:55:30;96840.00;;;2.19;93.94
39363;BME280;25088;43.238;23.110;2023-01-26T08:57:57;96839.38;;;2.45;90.82
39363;BME280;25088;43.238;23.110;2023-01-26T09:00:23;96841.16;;;2.66;87.74
39363;BME280;25088;43.238;23.110;2023-01-26T09:02:50;96831.31;;;2.79;85.01
39363;BME280;25088;43.238;23.110;2023-01-26T09:05:16;96826.38;;;2.90;83.29
39363;BME280;25088;43.238;23.110;2023-01-26T09:07:41;96813.84;;;2.69;82.30
39363;BME280;25088;43.238;23.110;2023-01-26T09:10:08;96823.72;;;2.62;83.73
39363;BME280;25088;43.238;23.110;2023-01-26T09:12:34;96832.75;;;2.47;84.64
39363;BME280;25088;43.238;23.110;2023-01-26T09:14:59;96844.28;;;2.35;85.62
39363;BME280;25088;43.238;23.110;2023-01-26T09:17:25;96828.13;;;2.35;86.53
39363;BME280;25088;43.238;23.110;2023-01-26T09:19:50;96825.94;;;2.23;86.80
39363;BME280;25088;43.238;23.110;2023-01-26T09:22:16;96824.22;;;2.09;86.61
39363;BME280;25088;43.238;23.110;2023-01-26T09:24:41;96828.72;;;2.08;86.96
39363;BME280;25088;43.238;23.110;2023-01-26T09:27:07;96815.47;;;2.07;87.92
39363;BME280;25088;43.238;23.110;2023-01-26T09:29:33;96818.47;;;2.19;87.52
39363;BME280;25088;43.238;23.110;2023-01-26T09:31:58;96818.91;;;2.22;87.43
39363;BME280;25088;43.238;23.110;2023-01-26T09:34:24;96806.91;;;2.25;86.64
39363;BME280;25088;43.238;23.110;2023-01-26T09:36:50;96799.88;;;2.24;86.70
39363;BME280;25088;43.238;23.110;2023-01-26T09:39:15;96796.03;;;2.12;88.03
39363;BME280;25088;43.238;23.110;2023-01-26T09:48:06;96772.44;;;1.86;90.46
39363;BME280;25088;43.238;23.110;2023-01-26T09:50:58;96783.91;;;1.94;89.07
39363;BME280;25088;43.238;23.110;2023-01-26T09:53:43;96779.00;;;2.04;88.25
39363;BME280;25088;43.238;23.110;2023-01-26T09:56:18;96762.06;;;2.11;88.21
39363;BME280;25088;43.238;23.110;2023-01-26T09:58:50;96754.19;;;2.09;88.40
39363;BME280;25088;43.238;23.110;2023-01-26T10:01:44;96754.59;;;2.13;88.13
39363;BME280;25088;43.238;23.110;2023-01-26T10:04:28;96769.31;;;2.10;88.42
39363;BME280;25088;43.238;23.110;2023-01-26T10:06:59;96757.66;;;2.03;88.54
39363;BME280;25088;43.238;23.110;2023-01-26T10:09:28;96774.88;;;2.08;88.14
39363;BME280;25088;43.238;23.110;2023-01-26T10:12:00;96759.50;;;2.02;87.85
39363;BME280;25088;43.238;23.110;2023-01-26T10:14:36;96758.69;;;2.02;88.95
39363;BME280;25088;43.238;23.110;2023-01-26T10:17:07;96753.41;;;1.87;90.41
39363;BME280;25088;43.238;23.110;2023-01-26T10:19:49;96743.75;;;1.71;90.84
39363;BME280;25088;43.238;23.110;2023-01-26T10:22:38;96744.63;;;1.78;90.76
39363;BME280;25088;43.238;23.110;2023-01-26T10:25:16;96741.09;;;1.78;92.01
39363;BME280;25088;43.238;23.110;2023-01-26T10:27:43;96729.47;;;1.71;91.08
39363;BME280;25088;43.238;23.110;2023-01-26T10:30:15;96720.44;;;1.57;91.25
39363;BME280;25088;43.238;23.110;2023-01-26T10:32:42;96731.91;;;1.66;91.75
39363;BME280;25088;43.238;23.110;2023-01-26T10:35:17;96731.09;;;1.65;92.09
39363;BME280;25088;43.238;23.110;2023-01-26T10:37:43;96740.81;;;1.66;91.50
39363;BME280;25088;43.238;23.110;2023-01-26T10:40:09;96729.59;;;1.63;92.95
39363;BME280;25088;43.238;23.110;2023-01-26T10:42:37;96727.81;;;1.70;93.16
39363;BME280;25088;43.238;23.110;2023-01-26T10:45:25;96722.03;;;1.73;93.33
39363;BME280;25088;43.238;23.110;2023-01-26T10:48:21;96718.84;;;1.63;94.03
39363;BME280;25088;43.238;23.110;2023-01-26T10:50:49;96713.88;;;1.60;94.43
39363;BME280;25088;43.238;23.110;2023-01-26T10:58:54;96697.16;;;1.71;93.82
39363;BME280;25088;43.238;23.110;2023-01-26T11:01:21;96687.78;;;1.60;93.48
39363;BME280;25088;43.238;23.110;2023-01-26T11:04:04;96682.00;;;1.63;95.11
39363;BME280;25088;43.238;23.110;2023-01-26T11:06:31;96668.50;;;1.57;94.31
39363;BME280;25088;43.238;23.110;2023-01-26T11:09:19;96664.03;;;1.42;94.45
39363;BME280;25088;43.238;23.110;2023-01-26T11:11:57;96658.94;;;1.54;94.56
39363;BME280;25088;43.238;23.110;2023-01-26T11:14:23;96664.94;;;1.49;94.33
39363;BME280;25088;43.238;23.110;2023-01-26T11:22:18;96638.66;;;1.51;93.92
39363;BME280;25088;43.238;23.110;2023-01-26T11:25:14;96649.56;;;1.71;92.95
39363;BME280;25088;43.238;23.110;2023-01-26T11:28:14;96638.75;;;1.65;92.75
39363;BME280;25088;43.238;23.110;2023-01-26T11:48:21;96622.97;;;1.90;92.48
39363;BME280;25088;43.238;23.110;2023-01-26T11:50:44;96616.09;;;1.87;92.18
39363;BME280;25088;43.238;23.110;2023-01-26T11:53:38;96598.31;;;1.93;92.05
39363;BME280;25088;43.238;23.110;2023-01-26T11:56:15;96600.59;;;1.89;91.96
39363;BME280;25088;43.238;23.110;2023-01-26T11:58:56;96593.50;;;1.81;91.28
39363;BME280;25088;43.238;23.110;2023-01-26T12:01:30;96603.19;;;1.69;91.72
39363;BME280;25088;43.238;23.110;2023-01-26T12:03:57;96602.31;;;1.69;91.48
39363;BME280;25088;43.238;23.110;2023-01-26T12:06:43;96594.56;;;1.87;90.78
39363;BME280;25088;43.238;23.110;2023-01-26T12:09:19;96592.69;;;1.81;90.83
39363;BME280;25088;43.238;23.110;2023-01-26T12:12:18;96584.81;;;1.79;89.63
39363;BME280;25088;43.238;23.110;2023-01-26T12:23:12;96564.66;;;1.69;92.86
39363;BME280;25088;43.238;23.110;2023-01-26T12:25:52;96550.91;;;1.92;97.42
39363;BME280;25088;43.238;23.110;2023-01-26T12:29:23;96550.50;;;1.95;92.65
39363;BME280;25088;43.238;23.110;2023-01-26T12:31:25;96550.66;;;1.87;90.63
39363;BME280;25088;43.238;23.110;2023-01-26T12:33:55;96552.50;;;1.79;92.18
39363;BME280;25088;43.238;23.110;2023-01-26T12:36:41;96550.22;;;1.76;94.08
39363;BME280;25088;43.238;23.110;2023-01-26T12:42:48;96542.63;;;1.52;93.97
39363;BME280;25088;43.238;23.110;2023-01-26T12:45:19;96548.16;;;1.44;93.71
39363;BME280;25088;43.238;23.110;2023-01-26T12:47:55;96540.63;;;1.26;95.35
39363;BME280;25088;43.238;23.110;2023-01-26T12:50:28;96544.13;;;1.26;96.79
39363;BME280;25088;43.238;23.110;2023-01-26T12:53:02;96542.03;;;1.22;98.07
39363;BME280;25088;43.238;23.110;2023-01-26T12:55:40;96543.22;;;1.13;97.56
39363;BME280;25088;43.238;23.110;2023-01-26T12:58:21;96540.19;;;1.22;99.00
39363;BME280;25088;43.238;23.110;2023-01-26T13:03:32;96542.78;;;1.44;98.09
39363;BME280;25088;43.238;23.110;2023-01-26T13:06:17;96539.13;;;1.51;96.89
39363;BME280;25088;43.238;23.110;2023-01-26T13:09:20;96550.91;;;1.50;96.08
39363;BME280;25088;43.238;23.110;2023-01-26T13:11:47;96533.25;;;1.41;94.87
39363;BME280;25088;43.238;23.110;2023-01-26T13:22:36;96514.16;;;1.29;98.34
39363;BME280;25088;43.238;23.110;2023-01-26T13:25:32;96517.69;;;1.30;97.75
39363;BME280;25088;43.238;23.110;2023-01-26T13:28:01;96501.72;;;1.28;97.03
39363;BME280;25088;43.238;23.110;2023-01-26T13:30:33;96508.56;;;1.24;96.84
39363;BME280;25088;43.238;23.110;2023-01-26T13:33:23;96504.84;;;1.25;97.54
39363;BME280;25088;43.238;23.110;2023-01-26T13:35:50;96503.59;;;1.28;96.96
39363;BME280;25088;43.238;23.110;2023-01-26T13:38:33;96497.16;;;1.22;98.24
39363;BME280;25088;43.238;23.110;2023-01-26T13:41:00;96501.69;;;1.22;97.89
39363;BME280;25088;43.238;23.110;2023-01-26T13:43:49;96507.66;;;1.17;98.49
39363;BME280;25088;43.238;23.110;2023-01-26T13:48:53;96500.22;;;1.19;98.97
39363;BME280;25088;43.238;23.110;2023-01-26T13:51:23;96502.31;;;1.24;98.42
39363;BME280;25088;43.238;23.110;2023-01-26T13:54:11;96500.72;;;1.29;98.78
39363;BME280;25088;43.238;23.110;2023-01-26T13:57:00;96503.00;;;1.33;98.27
39363;BME280;25088;43.238;23.110;2023-01-26T13:59:24;96513.88;;;1.18;98.36
39363;BME280;25088;43.238;23.110;2023-01-26T14:01:52;96506.81;;;1.10;98.72
39363;BME280;25088;43.238;23.110;2023-01-26T14:04:19;96508.47;;;1.11;98.72
39363;BME280;25088;43.238;23.110;2023-01-26T14:07:00;96495.22;;;1.10;99.02
39363;BME280;25088;43.238;23.110;2023-01-26T14:09:29;96502.03;;;1.06;98.36
39363;BME280;25088;43.238;23.110;2023-01-26T14:12:01;96494.72;;;0.99;99.58